Time;durP1;ratioP1;P1;durP2;ratioP2;P2;SDS_P1;SDS_P2;PMS_P1;PMS_P2;Temp;Humidity;BMP_temperature;BMP_pressure;BME280_temperature;BME280_humidity;BME280_pressure;Samples;Min_cycle;Max_cycle;Signal;HPM_P1;HPM_P2
2022/02/07 00:02:21;;;;;;;;;;;6.20;99.90;;;3.53;100.00;99501.50;5071354;28;20015;-87
2022/02/07 00:04:49;;;;;;;;;;;6.10;99.90;;;3.44;100.00;99512.41;5071637;28;19928;-88
2022/02/07 00:07:18;;;;;;;;;;;6.00;99.90;;;3.30;100.00;99517.41;5071666;28;19940;-86
2022/02/07 00:09:45;;;;;;;;;;;6.00;99.90;;;3.35;100.00;99519.63;5071256;28;20427;-87
2022/02/07 00:12:13;;;;;;;;;;;5.90;99.90;;;3.26;100.00;99536.75;5071101;28;20015;-87
2022/02/07 00:14:40;;;;;;;;;;;5.90;99.90;;;3.20;100.00;99542.72;5071294;28;20376;-87
2022/02/07 00:17:07;;;;;;;;;;;5.80;99.90;;;3.15;100.00;99561.22;5070939;28;19934;-87
2022/02/07 00:19:34;;;;;;;;;;;5.80;99.90;;;3.18;100.00;99566.25;5071020;28;20412;-87
2022/02/07 00:22:04;;;;;;;;;;;5.70;99.90;;;3.12;100.00;99576.66;5052614;28;19964;-87
2022/02/07 00:24:31;;;;;;;;;;;5.70;99.90;;;3.06;100.00;99585.34;5070995;28;19973;-86
2022/02/07 00:26:58;;;;;;;;;;;5.60;99.90;;;3.08;100.00;99591.41;5071292;28;19964;-87
2022/02/07 00:29:25;;;;;;;;;;;5.60;99.90;;;3.11;100.00;99592.94;5052866;28;20023;-87
2022/02/07 00:31:52;;;;;;;;;;;5.60;99.90;;;3.09;100.00;99603.84;5052582;28;19959;-87
2022/02/07 00:34:19;;;;;;;;;;;5.60;99.90;;;3.13;100.00;99618.66;5071103;28;19959;-87
2022/02/07 00:36:48;;;;;;;;;;;5.60;99.90;;;3.04;100.00;99624.97;5070785;28;19924;-87
2022/02/07 00:39:23;;;;;;;;;;;5.60;99.90;;;3.13;100.00;99629.41;5070751;28;20001;-87
2022/02/07 00:41:56;;;;;;;;;;;5.50;99.90;;;3.10;100.00;99635.13;5052822;28;19924;-88
2022/02/07 00:44:23;;;;;;;;;;;5.50;99.90;;;3.02;100.00;99643.13;5052642;28;19924;-87
2022/02/07 00:46:57;;;;;;;;;;;5.50;99.90;;;3.01;100.00;99649.50;5052723;28;19928;-87
2022/02/07 00:49:24;;;;;;;;;;;5.50;99.90;;;3.02;100.00;99658.41;5052259;28;20022;-87
2022/02/07 00:51:51;;;;;;;;;;;5.40;99.90;;;2.97;100.00;99666.94;5052286;28;19932;-87
2022/02/07 00:54:20;;;;;;;;;;;5.40;99.90;;;3.00;100.00;99666.63;5052489;28;19964;-88
2022/02/07 00:56:48;;;;;;;;;;;5.50;99.90;;;2.93;100.00;99681.69;5051624;28;19928;-88
2022/02/07 00:59:16;;;;;;;;;;;5.40;99.90;;;2.95;100.00;99695.81;5052427;28;19950;-87
2022/02/07 01:01:43;;;;;;;;;;;5.40;99.90;;;2.90;100.00;99692.75;5070393;28;19963;-88
2022/02/07 01:04:10;;;;;;;;;;;5.40;99.90;;;2.91;100.00;99694.44;5070430;28;19928;-87
2022/02/07 01:06:46;;;;;;;;;;;5.40;99.90;;;2.95;100.00;99706.56;5052315;28;19924;-88
2022/02/07 01:09:28;;;;;;;;;;;5.40;99.90;;;2.90;100.00;99714.25;5052143;28;19928;-87
2022/02/07 01:12:10;;;;;;;;;;;5.40;99.90;;;2.91;100.00;99724.00;5052027;28;20354;-88
2022/02/07 01:15:04;;;;;;;;;;;5.30;99.90;;;2.91;100.00;99737.44;5070104;28;19933;-88
2022/02/07 01:23:25;;;;;;;;;;;5.40;99.90;;;2.91;100.00;99754.41;5035724;28;19935;-87
2022/02/07 01:51:25;;;;;;;;;;;5.30;99.90;;;3.02;100.00;99862.69;5038909;28;20098;-88
2022/02/07 01:54:08;;;;;;;;;;;5.30;99.90;;;3.12;100.00;99887.66;5051507;28;19952;-88
2022/02/07 01:56:39;;;;;;;;;;;5.30;99.90;;;3.16;100.00;99896.25;5051529;28;20421;-88
2022/02/07 01:59:08;;;;;;;;;;;5.40;99.90;;;3.28;100.00;99900.44;5051139;28;19955;-88
2022/02/07 02:01:40;;;;;;;;;;;5.40;99.90;;;3.26;100.00;99910.50;5051001;28;19935;-88
2022/02/07 02:04:07;;;;;;;;;;;5.40;99.90;;;3.24;100.00;99920.56;5051333;28;19974;-88
2022/02/07 02:06:36;;;;;;;;;;;5.50;99.90;;;3.27;100.00;99937.22;5050971;28;20042;-88
2022/02/07 02:09:09;;;;;;;;;;;5.50;99.90;;;3.30;100.00;99936.09;5051002;28;19924;-88
2022/02/07 02:11:41;;;;;;;;;;;5.60;99.90;;;3.35;100.00;99955.31;5051110;28;19928;-88
2022/02/07 02:14:23;;;;;;;;;;;5.50;99.90;;;3.40;100.00;99957.53;5051087;28;20028;-87
2022/02/07 02:17:07;;;;;;;;;;;5.60;99.90;;;3.41;100.00;99959.19;5049537;28;19928;-88
2022/02/07 02:20:33;;;;;;;;;;;5.60;99.90;;;3.49;100.00;99984.34;5050394;28;20940;-88
2022/02/07 02:32:35;;;;;;;;;;;5.60;99.90;;;3.40;100.00;99985.25;5050850;28;19978;-88
2022/02/07 02:34:41;;;;;;;;;;;5.60;99.90;;;3.31;100.00;100023.81;5050736;28;19971;-87
2022/02/07 02:37:14;;;;;;;;;;;5.60;99.90;;;3.25;100.00;100019.03;5050714;28;20026;-87
2022/02/07 02:45:30;;;;;;;;;;;5.50;99.90;;;3.17;100.00;100048.53;5050730;28;19946;-88
2022/02/07 02:48:03;;;;;;;;;;;5.50;99.90;;;3.25;100.00;100062.91;5050990;28;20410;-87
2022/02/07 02:50:35;;;;;;;;;;;5.50;99.90;;;3.22;100.00;100065.03;5050950;28;19974;-87
2022/02/07 02:53:06;;;;;;;;;;;5.50;99.90;;;3.31;100.00;100073.09;5050213;28;19933;-87
2022/02/07 02:55:37;;;;;;;;;;;5.50;99.90;;;3.28;100.00;100075.22;5050771;28;20296;-88
2022/02/07 02:58:07;;;;;;;;;;;5.50;99.90;;;3.30;100.00;100102.81;5050496;28;20256;-88
2022/02/07 03:00:36;;;;;;;;;;;5.60;99.90;;;3.31;100.00;100109.88;5050389;28;19978;-87
2022/02/07 03:03:07;;;;;;;;;;;5.60;99.90;;;3.27;100.00;100130.84;5050627;28;19928;-87
2022/02/07 03:05:35;;;;;;;;;;;5.50;99.90;;;3.18;100.00;100142.50;5050284;28;19964;-87
2022/02/07 03:08:02;;;;;;;;;;;5.50;99.90;;;3.18;100.00;100144.31;5050374;28;19981;-87
2022/02/07 03:10:41;;;;;;;;;;;5.50;99.90;;;3.11;100.00;100150.28;5068158;28;19939;-87
2022/02/07 03:13:13;;;;;;;;;;;5.50;99.90;;;3.11;100.00;100149.44;5049842;28;20303;-87
2022/02/07 03:18:26;;;;;;;;;;;5.50;99.90;;;3.00;100.00;100161.19;5067194;28;20300;-87
2022/02/07 03:20:54;;;;;;;;;;;5.40;99.90;;;3.03;100.00;100168.16;5053693;28;20307;-88
2022/02/07 03:23:22;;;;;;;;;;;5.40;99.90;;;2.90;100.00;100181.88;5072188;28;19934;-87
2022/02/07 03:25:50;;;;;;;;;;;5.40;99.90;;;2.95;100.00;100190.34;5053862;28;19967;-88
2022/02/07 03:28:22;;;;;;;;;;;5.40;99.90;;;3.06;100.00;100197.41;5053852;28;20022;-87
2022/02/07 03:30:49;;;;;;;;;;;5.40;99.90;;;3.11;100.00;100204.06;5054027;28;19939;-88
2022/02/07 03:33:17;;;;;;;;;;;5.40;99.90;;;3.10;100.00;100210.44;5053708;28;19935;-87
2022/02/07 03:35:46;;;;;;;;;;;5.40;99.90;;;3.09;100.00;100219.47;5062887;23;19935;-90
2022/02/07 03:38:13;;;;;;;;;;;5.40;99.90;;;3.22;100.00;100223.69;5050453;28;20412;-91
2022/02/07 03:40:41;;;;;;;;;;;5.40;99.90;;;3.24;100.00;100227.97;5051016;28;19954;-90
2022/02/07 03:43:08;;;;;;;;;;;5.40;99.90;;;3.23;100.00;100236.16;5051128;28;20353;-90
2022/02/07 03:45:37;;;;;;;;;;;5.40;99.90;;;3.20;100.00;100242.69;5050290;28;19933;-90
2022/02/07 03:48:12;;;;;;;;;;;5.40;99.90;;;3.11;100.00;100251.63;5050870;28;20451;-89
2022/02/07 03:50:39;;;;;;;;;;;5.40;99.90;;;3.18;100.00;100265.31;5048790;28;19933;-89
2022/02/07 03:53:07;;;;;;;;;;;5.40;99.90;;;3.18;100.00;100262.63;5050579;28;19929;-91
2022/02/07 03:55:44;;;;;;;;;;;5.50;99.90;;;3.22;100.00;100270.28;5050668;28;19990;-91
2022/02/07 03:58:12;;;;;;;;;;;5.40;99.90;;;3.21;100.00;100270.41;5050848;28;20023;-91
2022/02/07 04:00:40;;;;;;;;;;;5.50;99.90;;;3.18;100.00;100284.13;5051125;28;19928;-91
2022/02/07 04:03:37;;;;;;;;;;;5.40;99.90;;;3.16;100.00;100299.56;5046977;28;19928;-91
2022/02/07 04:06:07;;;;;;;;;;;5.40;99.90;;;3.04;100.00;100299.72;5050608;28;19933;-90
2022/02/07 04:08:38;;;;;;;;;;;5.40;99.90;;;3.03;100.00;100306.09;5050310;28;19936;-90
2022/02/07 04:11:16;;;;;;;;;;;5.40;99.90;;;3.05;100.00;100320.25;5050744;28;20006;-90
2022/02/07 04:13:51;;;;;;;;;;;5.50;99.90;;;3.03;100.00;100327.59;5050004;28;20006;-89
2022/02/07 04:16:20;;;;;;;;;;;5.40;99.90;;;3.05;100.00;100341.75;5050548;28;19928;-89
2022/02/07 04:19:05;;;;;;;;;;;5.30;99.90;;;3.07;100.00;100345.16;5043680;28;19929;-90
2022/02/07 04:21:42;;;;;;;;;;;5.30;99.90;;;3.04;100.00;100353.47;5050019;28;19935;-89
2022/02/07 04:24:13;;;;;;;;;;;5.40;99.90;;;3.16;100.00;100364.09;5049750;28;19928;-91
2022/02/07 04:26:50;;;;;;;;;;;5.40;99.90;;;3.12;100.00;100364.41;5050292;28;19932;-91
2022/02/07 04:29:17;;;;;;;;;;;5.40;99.90;;;3.14;100.00;100366.91;5049232;28;20021;-89
2022/02/07 04:31:45;;;;;;;;;;;5.40;99.90;;;3.24;100.00;100372.34;5050117;28;19955;-89
2022/02/07 04:34:16;;;;;;;;;;;5.40;99.90;;;3.27;100.00;100386.31;5049622;28;19995;-90
2022/02/07 04:36:44;;;;;;;;;;;5.40;99.90;;;3.29;100.00;100380.81;5050575;28;19929;-89
2022/02/07 04:39:12;;;;;;;;;;;5.40;99.90;;;3.33;100.00;100391.16;5049406;28;19924;-89
2022/02/07 04:41:40;;;;;;;;;;;5.50;99.90;;;3.30;100.00;100398.66;5049846;28;20011;-89
2022/02/07 04:44:11;;;;;;;;;;;5.50;99.90;;;3.25;100.00;100417.03;5049648;28;19935;-89
2022/02/07 04:46:55;;;;;;;;;;;5.50;99.90;;;3.33;100.00;100409.13;5049784;28;19932;-90
2022/02/07 04:49:42;;;;;;;;;;;5.50;99.90;;;3.33;100.00;100414.50;5049251;28;19975;-90
2022/02/07 04:52:22;;;;;;;;;;;5.60;99.90;;;3.28;100.00;100417.63;5049482;28;20681;-89
2022/02/07 04:55:06;;;;;;;;;;;5.60;99.90;;;3.35;100.00;100422.44;5049913;28;19929;-90
2022/02/07 04:57:51;;;;;;;;;;;5.60;99.90;;;3.31;100.00;100422.72;5049328;28;19929;-90
2022/02/07 05:00:41;;;;;;;;;;;5.60;99.90;;;3.35;100.00;100444.81;5049188;28;19932;-90
2022/02/07 05:03:15;;;;;;;;;;;5.60;99.90;;;3.36;100.00;100451.88;5049742;28;19982;-90
2022/02/07 05:14:04;;;;;;;;;;;5.60;99.90;;;3.27;100.00;100485.00;5050684;28;19931;-90
2022/02/07 05:16:32;;;;;;;;;;;5.60;99.90;;;3.29;100.00;100488.41;5049278;28;20019;-89
2022/02/07 05:19:06;;;;;;;;;;;5.60;99.90;;;3.35;100.00;100498.63;5049698;28;19932;-89
2022/02/07 05:21:49;;;;;;;;;;;5.60;99.90;;;3.39;100.00;100510.81;5048299;28;19952;-90
2022/02/07 05:24:42;;;;;;;;;;;5.60;99.90;;;3.44;100.00;100507.69;5029682;28;20298;-90
2022/02/07 05:27:25;;;;;;;;;;;5.60;99.90;;;3.55;100.00;100520.16;5056675;28;19928;-92
2022/02/07 05:29:52;;;;;;;;;;;5.60;99.90;;;3.59;100.00;100524.28;5043943;28;19928;-90
2022/02/07 05:32:22;;;;;;;;;;;5.70;99.90;;;3.62;100.00;100526.72;5050388;28;19925;-92
2022/02/07 05:35:12;;;;;;;;;;;5.70;99.90;;;3.61;100.00;100531.22;5049166;28;19925;-92
2022/02/07 05:37:56;;;;;;;;;;;5.70;99.90;;;3.63;100.00;100548.06;5049053;28;19970;-91
2022/02/07 05:40:39;;;;;;;;;;;5.70;99.90;;;3.71;100.00;100552.75;5049112;28;19935;-91
2022/02/07 05:43:23;;;;;;;;;;;5.80;99.90;;;3.78;100.00;100556.59;5044257;28;19951;-89
2022/02/07 05:46:06;;;;;;;;;;;5.80;99.90;;;3.75;100.00;100562.28;5049514;28;20380;-92
2022/02/07 05:48:56;;;;;;;;;;;5.80;99.90;;;3.77;100.00;100573.75;5039588;28;19925;-92
2022/02/07 05:51:42;;;;;;;;;;;5.80;99.90;;;3.77;100.00;100580.97;5031362;28;20766;-89
2022/02/07 05:54:29;;;;;;;;;;;5.80;99.90;;;3.69;100.00;100587.03;5029916;28;19936;-89
2022/02/07 05:57:22;;;;;;;;;;;5.80;99.90;;;3.68;100.00;100599.66;5037827;28;19935;-89
2022/02/07 05:59:58;;;;;;;;;;;5.80;99.90;;;3.75;100.00;100597.28;5048012;28;20449;-89
2022/02/07 06:02:54;;;;;;;;;;;5.80;99.90;;;3.70;100.00;100588.75;5050028;28;19928;-89
2022/02/07 06:05:33;;;;;;;;;;;5.80;99.90;;;3.71;100.00;100602.06;5048467;28;19933;-90
2022/02/07 06:08:09;;;;;;;;;;;5.90;99.90;;;3.75;100.00;100615.25;5047280;28;20455;-90
2022/02/07 06:10:38;;;;;;;;;;;5.90;99.90;;;3.80;100.00;100613.84;5047268;28;19971;-89
2022/02/07 06:13:06;;;;;;;;;;;5.90;99.90;;;3.83;100.00;100621.66;5040010;28;20023;-89
2022/02/07 06:15:33;;;;;;;;;;;5.90;99.90;;;3.86;100.00;100642.03;5047741;28;19968;-89
2022/02/07 06:18:01;;;;;;;;;;;5.90;99.90;;;3.85;100.00;100641.19;5045490;28;20474;-85
2022/02/07 06:20:31;;;;;;;;;;;5.90;99.90;;;3.82;100.00;100641.47;5045502;28;20524;-86
2022/02/07 06:22:59;;;;;;;;;;;6.00;99.90;;;3.88;100.00;100657.09;5044302;28;20423;-88
2022/02/07 06:25:26;;;;;;;;;;;5.90;99.90;;;3.92;100.00;100663.91;5045927;28;19936;-88
2022/02/07 06:27:55;;;;;;;;;;;6.00;99.90;;;3.89;100.00;100674.09;5047232;28;19935;-90
2022/02/07 06:30:34;;;;;;;;;;;6.00;99.90;;;3.88;100.00;100681.31;5047838;28;19929;-90
2022/02/07 06:33:01;;;;;;;;;;;6.00;99.90;;;3.88;100.00;100693.91;5047591;28;19932;-87
2022/02/07 06:35:28;;;;;;;;;;;6.00;99.90;;;3.94;100.00;100701.47;5047503;28;19968;-87
2022/02/07 06:37:56;;;;;;;;;;;6.00;99.90;;;3.91;100.00;100699.88;5048949;28;20414;-88
2022/02/07 06:40:24;;;;;;;;;;;6.00;99.90;;;3.94;100.00;100719.44;5047377;28;19928;-89
2022/02/07 06:42:51;;;;;;;;;;;6.00;99.90;;;3.95;100.00;100721.16;5047826;28;19932;-88
2022/02/07 06:45:20;;;;;;;;;;;6.00;99.90;;;3.91;100.00;100721.41;5047309;28;20292;-89
2022/02/07 06:47:47;;;;;;;;;;;6.00;99.90;;;3.88;100.00;100721.72;5048307;28;19929;-90
2022/02/07 06:50:15;;;;;;;;;;;6.00;99.90;;;3.86;100.00;100729.03;5047312;28;19935;-90
2022/02/07 06:52:42;;;;;;;;;;;6.00;99.90;;;3.89;100.00;100738.72;5048223;28;19967;-88
2022/02/07 06:55:10;;;;;;;;;;;6.00;99.90;;;3.89;100.00;100742.25;5051530;28;20011;-89
2022/02/07 06:57:37;;;;;;;;;;;6.00;99.90;;;3.95;100.00;100742.69;5051173;28;19928;-90
2022/02/07 07:00:06;;;;;;;;;;;6.00;99.90;;;3.99;100.00;100749.50;5070726;28;19925;-87
2022/02/07 07:02:38;;;;;;;;;;;6.00;99.90;;;4.03;100.00;100757.16;5051087;28;19960;-86
2022/02/07 07:05:10;;;;;;;;;;;6.00;99.90;;;4.01;100.00;100767.22;5051113;28;19932;-87
2022/02/07 07:07:38;;;;;;;;;;;6.00;99.90;;;4.04;100.00;100766.13;5050531;28;19943;-87
2022/02/07 07:10:07;;;;;;;;;;;6.00;99.90;;;4.06;100.00;100777.59;5050741;28;19929;-87
2022/02/07 07:12:35;;;;;;;;;;;6.00;99.90;;;4.06;100.00;100777.59;5050940;28;20040;-86
2022/02/07 07:15:09;;;;;;;;;;;6.00;99.90;;;3.95;100.00;100783.09;5050545;28;19924;-85
2022/02/07 07:17:38;;;;;;;;;;;6.00;99.90;;;3.95;100.00;100793.84;5050771;28;20056;-87
2022/02/07 07:20:16;;;;;;;;;;;6.10;99.90;;;3.97;100.00;100794.56;5050343;28;19960;-87
2022/02/07 07:22:44;;;;;;;;;;;6.10;99.90;;;4.00;100.00;100794.28;5049509;28;19967;-88
2022/02/07 07:25:16;;;;;;;;;;;6.10;99.90;;;3.96;100.00;100806.31;5050623;28;19928;-87
2022/02/07 07:27:57;;;;;;;;;;;6.10;99.90;;;3.89;100.00;100812.25;5050941;28;19929;-87
2022/02/07 07:30:28;;;;;;;;;;;6.00;99.90;;;3.82;100.00;100821.00;5050918;28;20308;-87
2022/02/07 07:33:07;;;;;;;;;;;6.10;99.90;;;3.82;100.00;100824.53;5050562;28;19928;-88
2022/02/07 07:35:34;;;;;;;;;;;6.10;99.90;;;3.88;100.00;100823.13;5050490;28;19933;-88
2022/02/07 07:38:03;;;;;;;;;;;6.00;99.90;;;3.80;100.00;100831.03;5050477;28;19928;-88
2022/02/07 07:40:31;;;;;;;;;;;6.00;99.90;;;3.81;100.00;100841.69;5050616;28;20395;-88
2022/02/07 07:43:01;;;;;;;;;;;6.00;99.90;;;3.82;100.00;100856.84;5050336;28;20479;-88
2022/02/07 07:45:54;;;;;;;;;;;6.00;99.90;;;3.88;100.00;100864.41;5052277;28;20313;-87
2022/02/07 07:48:56;;;;;;;;;;;6.00;99.90;;;3.88;100.00;100883.25;5049775;28;19935;-88
2022/02/07 07:51:42;;;;;;;;;;;6.00;99.90;;;3.90;100.00;100892.03;5050559;28;19924;-88
2022/02/07 07:54:43;;;;;;;;;;;6.00;99.90;;;3.98;100.00;100903.97;5050663;28;19936;-88
2022/02/07 08:02:45;;;;;;;;;;;6.10;99.90;;;3.95;100.00;100909.63;5051484;28;20373;-87
2022/02/07 08:05:25;;;;;;;;;;;6.10;99.90;;;3.97;100.00;100918.44;5049013;28;20057;-88
2022/02/07 08:08:05;;;;;;;;;;;6.10;99.90;;;4.04;100.00;100916.94;5050343;28;19932;-90
2022/02/07 08:10:48;;;;;;;;;;;6.10;99.90;;;4.01;100.00;100919.88;5050278;28;20023;-87
2022/02/07 08:13:17;;;;;;;;;;;6.10;99.90;;;4.12;100.00;100919.81;5049426;28;19929;-87
2022/02/07 08:15:51;;;;;;;;;;;6.10;99.90;;;4.20;100.00;100929.91;5049873;28;20455;-87
2022/02/07 08:18:18;;;;;;;;;;;6.10;99.90;;;4.24;100.00;100932.19;5051069;28;20016;-89
2022/02/07 08:20:47;;;;;;;;;;;6.20;99.90;;;4.21;100.00;100937.88;5051483;28;19929;-87
2022/02/07 08:23:14;;;;;;;;;;;6.20;99.90;;;4.21;100.00;100951.34;5050852;28;19929;-87
2022/02/07 08:25:41;;;;;;;;;;;6.20;99.90;;;4.20;100.00;100946.91;5051322;28;19929;-88
2022/02/07 08:28:09;;;;;;;;;;;6.20;99.90;;;4.30;100.00;100964.00;5050364;28;19936;-88
2022/02/07 08:30:36;;;;;;;;;;;6.30;99.90;;;4.42;100.00;100969.34;5051214;28;19932;-87
2022/02/07 08:33:03;;;;;;;;;;;6.30;99.90;;;4.43;100.00;100979.09;5049714;28;19925;-87
2022/02/07 08:35:32;;;;;;;;;;;6.40;99.90;;;4.53;100.00;101000.72;5050628;28;19929;-86
2022/02/07 08:38:02;;;;;;;;;;;6.40;99.90;;;4.56;100.00;101008.56;5050982;28;19952;-87
2022/02/07 08:40:33;;;;;;;;;;;6.50;99.90;;;4.63;100.00;101007.88;5050586;28;19994;-88
2022/02/07 08:43:00;;;;;;;;;;;6.50;99.90;;;4.67;100.00;101005.78;5049773;28;20459;-90
2022/02/07 08:45:27;;;;;;;;;;;6.50;99.90;;;4.67;100.00;101012.00;5050808;28;19928;-88
2022/02/07 08:47:56;;;;;;;;;;;6.50;99.90;;;4.65;100.00;101024.78;5049362;28;19928;-88
2022/02/07 08:50:24;;;;;;;;;;;6.50;99.90;;;4.59;100.00;101038.78;5050518;28;19929;-88
2022/02/07 08:52:53;;;;;;;;;;;6.60;99.90;;;4.63;100.00;101039.38;5050740;28;19928;-90
2022/02/07 08:55:27;;;;;;;;;;;6.60;99.90;;;4.69;100.00;101039.69;5048951;28;20300;-88
2022/02/07 08:57:58;;;;;;;;;;;6.60;99.90;;;4.77;100.00;101039.00;5049284;28;19925;-89
2022/02/07 09:00:38;;;;;;;;;;;6.70;99.90;;;4.91;100.00;101056.69;5048970;28;19928;-87
2022/02/07 09:03:21;;;;;;;;;;;6.70;99.90;;;5.06;100.00;101067.97;5050655;28;19928;-87
2022/02/07 09:05:55;;;;;;;;;;;6.80;99.90;;;5.17;100.00;101070.56;5050425;28;19928;-88
2022/02/07 09:08:26;;;;;;;;;;;6.80;99.90;;;5.16;100.00;101071.59;5049865;28;19940;-88
2022/02/07 09:10:56;;;;;;;;;;;6.90;99.90;;;5.23;100.00;101069.19;5049162;28;19932;-84
2022/02/07 09:13:29;;;;;;;;;;;6.90;99.90;;;5.24;100.00;101079.00;5048485;28;19978;-87
2022/02/07 09:18:38;;;;;;;;;;;7.00;99.90;;;5.18;100.00;101087.59;5047918;28;20443;-88
2022/02/07 09:21:07;;;;;;;;;;;7.00;99.90;;;5.18;100.00;101088.47;5050251;28;20031;-86
2022/02/07 09:23:34;;;;;;;;;;;7.00;99.90;;;5.26;100.00;101095.91;5049854;28;19955;-88
2022/02/07 09:26:03;;;;;;;;;;;7.00;99.90;;;5.33;100.00;101102.47;5048606;28;19933;-88
2022/02/07 09:28:31;;;;;;;;;;;7.00;99.90;;;5.36;100.00;101091.38;5048320;28;19932;-88
2022/02/07 09:30:58;;;;;;;;;;;7.00;99.90;;;5.34;100.00;101087.13;5049773;28;19983;-89
2022/02/07 09:33:26;;;;;;;;;;;7.10;99.90;;;5.36;100.00;101091.38;5049949;28;19929;-89
2022/02/07 09:35:54;;;;;;;;;;;7.10;99.90;;;5.39;100.00;101092.97;5074966;23;20018;-87
2022/02/07 09:38:22;;;;;;;;;;;7.10;99.90;;;5.37;100.00;101106.59;5068892;28;19935;-87
2022/02/07 09:40:51;;;;;;;;;;;7.20;99.90;;;5.27;100.00;101113.78;5067178;28;20392;-88
2022/02/07 09:43:20;;;;;;;;;;;7.20;99.90;;;5.28;100.00;101127.16;5060199;28;19959;-88
2022/02/07 09:45:49;;;;;;;;;;;7.20;99.90;;;5.26;100.00;101129.13;5064511;28;19924;-90
2022/02/07 09:48:17;;;;;;;;;;;7.20;99.90;;;5.35;100.00;101140.09;5067695;28;19928;-88
2022/02/07 09:50:45;;;;;;;;;;;7.20;99.90;;;5.38;100.00;101154.19;5062074;28;19989;-88
2022/02/07 09:53:13;;;;;;;;;;;7.30;99.90;;;5.33;100.00;101158.25;5061782;28;20019;-88
2022/02/07 09:55:40;;;;;;;;;;;7.30;99.90;;;5.36;100.00;101156.16;5061770;28;20470;-88
2022/02/07 09:58:07;;;;;;;;;;;7.20;99.90;;;5.42;100.00;101158.31;5062454;28;19982;-88
2022/02/07 10:00:37;;;;;;;;;;;7.30;99.90;;;5.50;100.00;101168.44;5064751;28;19928;-88
2022/02/07 10:03:10;;;;;;;;;;;7.30;99.90;;;5.59;100.00;101174.88;5063670;28;20037;-87
2022/02/07 10:05:47;;;;;;;;;;;7.30;99.90;;;5.63;100.00;101179.00;5068177;28;19959;-87
2022/02/07 10:08:20;;;;;;;;;;;7.40;99.90;;;5.73;100.00;101196.13;5064946;28;19932;-87
2022/02/07 10:11:08;;;;;;;;;;;7.40;99.90;;;5.76;100.00;101190.44;5068315;28;19974;-88
2022/02/07 10:13:45;;;;;;;;;;;7.40;99.90;;;5.87;100.00;101195.72;5066949;28;19986;-90
2022/02/07 10:16:33;;;;;;;;;;;7.50;99.90;;;5.87;100.00;101198.44;5058980;28;20396;-88
2022/02/07 10:19:14;;;;;;;;;;;7.50;99.90;;;5.89;100.00;101209.09;5068203;28;19951;-88
2022/02/07 10:36:16;;;;;;;;;;;7.80;99.90;;;6.17;100.00;101249.88;5065454;28;19951;-89
2022/02/07 10:39:11;;;;;;;;;;;7.80;99.90;;;6.23;100.00;101258.31;5064027;28;19933;-89
2022/02/07 10:42:01;;;;;;;;;;;7.80;99.90;;;6.29;100.00;101256.06;5065929;28;19952;-89
2022/02/07 10:44:42;;;;;;;;;;;7.90;99.90;;;6.33;100.00;101246.66;5064686;28;19925;-88
2022/02/07 10:47:14;;;;;;;;;;;7.90;99.90;;;6.42;100.00;101256.66;5061680;28;20334;-88
2022/02/07 10:50:01;;;;;;;;;;;8.00;99.90;;;6.49;100.00;101257.78;5065436;28;20536;-89
2022/02/07 10:52:29;;;;;;;;;;;8.00;99.90;;;6.59;100.00;101253.25;5063739;28;19936;-88
2022/02/07 10:54:56;;;;;;;;;;;8.10;99.90;;;6.50;100.00;101281.13;5067470;28;19932;-89
2022/02/07 10:57:23;;;;;;;;;;;8.10;99.90;;;6.52;100.00;101279.16;5066066;28;19935;-86
2022/02/07 10:59:50;;;;;;;;;;;8.10;99.90;;;6.58;100.00;101283.13;5065619;28;19939;-90
2022/02/07 11:02:42;;;;;;;;;;;8.10;99.90;;;6.56;98.98;101285.97;5067166;28;19937;-90
2022/02/07 11:05:14;;;;;;;;;;;8.10;99.90;;;6.57;98.39;101297.66;5060604;28;20292;-86
2022/02/07 11:07:42;;;;;;;;;;;8.10;99.90;;;6.51;98.02;101304.50;5059270;28;20373;-85
2022/02/07 11:13:12;;;;;;;;;;;8.00;99.90;;;6.40;98.30;101307.31;5063771;28;19928;-87
2022/02/07 11:15:45;;;;;;;;;;;8.00;99.90;;;6.32;96.57;101309.81;5068159;28;19928;-89
2022/02/07 11:18:26;;;;;;;;;;;8.00;99.90;;;6.34;97.61;101313.25;5063373;28;20019;-90
2022/02/07 11:21:15;;;;;;;;;;;8.00;99.90;;;6.34;97.90;101307.84;5066991;28;19929;-90
2022/02/07 11:23:51;;;;;;;;;;;8.00;99.90;;;6.38;98.13;101315.56;5065561;28;19975;-91
2022/02/07 11:26:33;;;;;;;;;;;8.00;99.90;;;6.43;98.27;101328.63;5068501;28;19994;-90
2022/02/07 11:29:01;;;;;;;;;;;8.10;99.90;;;6.40;98.32;101318.13;5062204;28;19929;-87
2022/02/07 11:31:34;;;;;;;;;;;8.10;99.90;;;6.48;99.42;101318.28;5068480;28;20370;-90
2022/02/07 11:34:11;;;;;;;;;;;8.10;99.90;;;6.50;98.24;101324.41;5065863;28;20368;-91
2022/02/07 11:36:41;;;;;;;;;;;8.10;99.90;;;6.51;98.75;101331.53;5066860;28;20468;-87
2022/02/07 11:39:12;;;;;;;;;;;8.10;99.90;;;6.54;99.12;101333.94;5068055;28;19944;-88
2022/02/07 11:42:12;;;;;;;;;;;8.10;99.90;;;6.59;97.64;101333.53;5071264;28;20042;-89
2022/02/07 11:45:22;;;;;;;;;;;8.20;99.90;;;6.69;98.45;101325.44;5071972;28;19924;-95
2022/02/07 11:47:50;;;;;;;;;;;8.20;99.90;;;6.77;98.23;101328.31;5067841;28;19931;-95
2022/02/07 11:50:33;;;;;;;;;;;8.20;99.90;;;6.87;96.62;101326.44;5073661;28;19935;-95
2022/02/07 11:53:05;;;;;;;;;;;8.30;99.90;;;6.91;95.78;101336.03;5075091;28;19925;-96
2022/02/07 12:54:43;;;;;;;;;;;8.80;99.40;;;7.14;93.85;101341.16;5085003;28;19927;-90
2022/02/07 12:57:10;;;;;;;;;;;8.80;99.90;;;7.20;93.54;101354.13;5087101;28;19970;-89
2022/02/07 12:59:37;;;;;;;;;;;8.80;99.60;;;7.27;92.24;101359.81;5085641;28;19928;-89
2022/02/07 13:02:05;;;;;;;;;;;8.80;99.20;;;7.31;92.61;101356.72;5083851;28;20532;-89
2022/02/07 13:04:33;;;;;;;;;;;8.80;99.30;;;7.34;93.00;101353.69;5089277;28;19930;-90
2022/02/07 13:07:08;;;;;;;;;;;8.80;99.70;;;7.42;93.58;101370.09;5086177;28;19931;-89
2022/02/07 13:09:42;;;;;;;;;;;8.80;99.90;;;7.35;94.63;101358.13;5082649;28;20007;-90
2022/02/07 13:12:21;;;;;;;;;;;8.80;99.90;;;7.28;93.65;101370.53;5085699;28;20392;-89
2022/02/07 13:14:49;;;;;;;;;;;8.80;99.90;;;7.14;94.45;101373.63;5080589;28;19950;-89
2022/02/07 13:17:22;;;;;;;;;;;8.80;99.90;;;7.11;95.40;101382.06;5088210;28;19955;-89
2022/02/07 13:19:51;;;;;;;;;;;8.80;99.90;;;7.15;96.12;101378.06;5087664;28;20019;-89
2022/02/07 13:22:21;;;;;;;;;;;8.80;99.90;;;7.21;95.95;101375.63;5089106;28;20461;-89
2022/02/07 13:24:49;;;;;;;;;;;8.80;99.90;;;7.16;95.01;101391.47;5088209;28;19941;-89
2022/02/07 13:27:20;;;;;;;;;;;8.80;99.90;;;7.07;94.69;101392.31;5087578;28;19928;-89
2022/02/07 13:29:48;;;;;;;;;;;8.80;99.90;;;7.01;94.40;101388.31;5086620;28;19932;-90
2022/02/07 13:32:17;;;;;;;;;;;8.70;99.90;;;7.02;95.01;101389.16;5088482;28;19928;-89
2022/02/07 13:34:44;;;;;;;;;;;8.70;99.90;;;6.98;95.45;101388.56;5087760;28;20012;-89
2022/02/07 13:37:14;;;;;;;;;;;8.70;99.90;;;7.05;96.14;101400.56;5084779;28;20433;-88
2022/02/07 13:39:53;;;;;;;;;;;8.70;99.90;;;7.08;94.88;101401.25;5085945;28;19928;-89
2022/02/07 13:42:26;;;;;;;;;;;8.70;99.90;;;7.03;95.44;101401.69;5087217;28;20323;-88
2022/02/07 13:44:58;;;;;;;;;;;8.70;99.90;;;6.99;94.71;101413.81;5087933;28;20016;-90
2022/02/07 13:47:27;;;;;;;;;;;8.70;99.90;;;6.96;92.89;101423.03;5086109;28;19928;-93
2022/02/07 13:49:56;;;;;;;;;;;8.70;99.90;;;6.92;93.45;101420.75;5082722;28;19928;-89
2022/02/07 13:52:23;;;;;;;;;;;8.70;99.90;;;7.00;94.33;101429.88;5082788;28;20304;-88
2022/02/07 13:54:51;;;;;;;;;;;8.70;99.90;;;7.03;93.65;101436.88;5082075;28;19934;-88
2022/02/07 13:57:24;;;;;;;;;;;8.70;99.90;;;7.02;93.42;101417.06;5083253;28;19967;-88
2022/02/07 13:59:53;;;;;;;;;;;8.80;99.90;;;7.07;91.85;101429.34;5091778;28;20025;-89
2022/02/07 14:02:29;;;;;;;;;;;8.80;98.70;;;7.04;91.36;101447.56;5084327;28;19932;-88
2022/02/07 14:04:58;;;;;;;;;;;8.80;98.00;;;6.94;90.52;101443.97;5077963;28;19975;-88
2022/02/07 14:07:25;;;;;;;;;;;8.70;98.20;;;6.94;90.64;101456.66;5083315;28;19934;-88
2022/02/07 14:09:53;;;;;;;;;;;8.70;98.30;;;7.02;91.11;101460.38;5086264;28;20019;-88